Accueil
METAR-TAF:

METAR-TAF

Aéroports :

Base aérienne

Tafraoui, Algérie

latitude: 35-32-33N, longitude: 000-31-56W, altitude: 112 m

Observation

Le bulletin a été fait il y a 1 heure et 16 minutes, à 06:00 UTC
Vent 2 kt de sud/sud-est
Température 14°C
Humidité 88%
Pression 1028 hPa
Visibilité: 6000 m
Nuages épars à une hauteur de 2600 ft

METAR: DAOL 190600Z 16002KT 6000 SCT026 14/12 Q1028

Heure: 08:16 (07:16 UTC)


TAF: absent

Observations et prévisions météorologiques de plus de 4000 aéroports (messages METAR et TAF).

Les stations disponibles sont représentées par des disques jaunes et rouges sur la carte.

Passer la souris dessus pour voir le nom de la station.

Cliquer dessus pour voir les observations et prévisions météorologiques.

Pour changer de carte: cliquez sur les boutons verts avec une croix noire pour zoomer, sur le bouton vert avec un tiret pour effectuer un zoom arrière, ou sur les flèches vertes pour les cartes adjacentes.


METAR-TAF: